createdAt,value
2022-09-09T00:02:30.596Z,21.20
2022-09-09T00:05:15.866Z,17.15
2022-09-09T00:07:53.578Z,20.65
2022-09-09T00:10:41.624Z,18.98
2022-09-09T00:13:29.082Z,22.30
2022-09-09T00:15:59.756Z,18.47
2022-09-09T00:18:52.111Z,17.30
2022-09-09T00:21:21.666Z,19.73
2022-09-09T00:23:55.610Z,19.67
2022-09-09T00:26:41.689Z,18.77
2022-09-09T00:29:34.850Z,19.23
2022-09-09T00:32:19.908Z,21.75
2022-09-09T00:34:55.796Z,22.13
2022-09-09T00:37:27.319Z,26.02
2022-09-09T00:39:59.004Z,24.70
2022-09-09T00:42:37.080Z,23.87
2022-09-09T00:45:42.932Z,19.77
2022-09-09T00:48:14.822Z,20.17
2022-09-09T00:50:48.538Z,21.58
2022-09-09T00:53:34.613Z,21.95
2022-09-09T00:56:23.050Z,23.53
2022-09-09T00:59:12.353Z,21.38
2022-09-09T01:01:40.923Z,22.05
2022-09-09T01:04:18.236Z,23.20
2022-09-09T01:06:53.389Z,21.20
2022-09-09T01:09:48.158Z,20.80
2022-09-09T01:12:35.782Z,22.55
2022-09-09T01:15:14.730Z,22.13
2022-09-09T01:18:02.576Z,22.15
2022-09-09T01:20:58.669Z,27.20
2022-09-09T01:23:52.644Z,21.53
2022-09-09T01:26:43.426Z,24.45
2022-09-09T01:29:21.927Z,25.30
2022-09-09T01:31:56.865Z,22.25
2022-09-09T01:34:30.155Z,24.70
2022-09-09T01:37:06.137Z,24.57
2022-09-09T01:39:36.001Z,26.83
2022-09-09T01:42:10.434Z,22.33
2022-09-09T01:44:39.595Z,25.25
2022-09-09T01:47:08.193Z,21.05
2022-09-09T01:49:42.225Z,21.47
2022-09-09T01:52:19.430Z,24.65
2022-09-09T01:54:47.656Z,24.95
2022-09-09T01:58:07.419Z,23.17
2022-09-09T02:00:43.997Z,22.85
2022-09-09T02:03:17.532Z,23.30
2022-09-09T02:06:34.854Z,21.90
2022-09-09T02:09:14.398Z,27.10
2022-09-09T02:11:47.159Z,32.08
2022-09-09T02:14:40.263Z,24.08
2022-09-09T02:17:15.127Z,23.53
2022-09-09T02:20:09.371Z,25.02
2022-09-09T02:22:48.809Z,25.38
2022-09-09T02:25:21.030Z,23.38
2022-09-09T02:27:52.823Z,21.73
2022-09-09T02:30:22.234Z,22.03
2022-09-09T02:33:00.791Z,25.65
2022-09-09T02:35:44.466Z,24.95
2022-09-09T02:38:16.566Z,26.67
2022-09-09T02:40:53.726Z,23.05
2022-09-09T02:43:21.972Z,21.60
2022-09-09T02:46:13.381Z,27.58
2022-09-09T02:49:05.065Z,24.83
2022-09-09T02:52:16.672Z,24.05
2022-09-09T02:54:45.036Z,26.45
2022-09-09T02:57:20.900Z,24.27
2022-09-09T02:59:51.583Z,22.52
2022-09-09T03:02:20.078Z,21.13
2022-09-09T03:04:53.263Z,24.27
2022-09-09T03:07:21.869Z,25.90
2022-09-09T03:09:51.218Z,26.13
2022-09-09T03:12:19.420Z,22.92
2022-09-09T03:14:48.030Z,22.67
2022-09-09T03:17:15.738Z,24.40
2022-09-09T03:19:51.879Z,24.67
2022-09-09T03:22:19.609Z,24.20
2022-09-09T03:24:48.260Z,27.27
2022-09-09T03:27:17.072Z,31.65
2022-09-09T03:29:46.249Z,24.75
2022-09-09T03:32:20.542Z,19.90
2022-09-09T03:34:50.819Z,25.00
2022-09-09T03:37:20.028Z,26.65
2022-09-09T03:39:50.226Z,23.40
2022-09-09T03:42:21.891Z,21.27
2022-09-09T03:44:53.315Z,27.00
2022-09-09T03:47:24.397Z,24.80
2022-09-09T03:49:57.421Z,36.30
2022-09-09T03:52:27.498Z,28.95
2022-09-09T03:54:55.720Z,32.15
2022-09-09T03:57:24.089Z,30.40
2022-09-09T03:59:51.935Z,24.87
2022-09-09T04:02:19.593Z,26.90
2022-09-09T04:04:47.773Z,26.73
2022-09-09T04:07:16.002Z,26.27
2022-09-09T04:09:45.160Z,28.58
2022-09-09T04:12:14.531Z,28.40
2022-09-09T04:14:42.826Z,27.10
2022-09-09T04:17:11.539Z,27.45
2022-09-09T04:19:39.613Z,27.48
2022-09-09T04:22:07.513Z,27.08
2022-09-09T04:24:36.487Z,27.80
2022-09-09T04:27:04.840Z,31.90
2022-09-09T04:29:36.053Z,28.58
2022-09-09T04:32:03.891Z,23.48
2022-09-09T04:34:32.572Z,28.75
2022-09-09T04:37:01.779Z,29.37
2022-09-09T04:39:30.145Z,28.77
2022-09-09T04:42:04.601Z,31.50
2022-09-09T04:44:32.671Z,27.95
2022-09-09T04:47:01.135Z,24.70
2022-09-09T04:49:29.566Z,27.37
2022-09-09T04:51:58.789Z,25.75
2022-09-09T04:54:26.880Z,28.60
2022-09-09T04:56:54.738Z,33.00
2022-09-09T04:59:23.359Z,109.80
2022-09-09T05:01:56.482Z,93.97
2022-09-09T05:04:24.778Z,51.05
2022-09-09T05:06:52.382Z,56.80
2022-09-09T05:09:20.441Z,45.17
2022-09-09T05:11:48.395Z,37.95
2022-09-09T05:14:33.125Z,32.80
2022-09-09T05:17:02.506Z,29.05
2022-09-09T05:19:32.390Z,38.20
2022-09-09T05:22:00.493Z,39.42
2022-09-09T05:24:35.943Z,26.77
2022-09-09T05:27:07.299Z,26.80
2022-09-09T05:29:35.146Z,27.35
2022-09-09T05:32:06.040Z,26.92
2022-09-09T05:34:36.205Z,27.55
2022-09-09T05:37:05.482Z,26.83
2022-09-09T05:39:34.292Z,28.00
2022-09-09T05:42:04.147Z,23.75
2022-09-09T05:44:33.922Z,27.05
2022-09-09T05:47:03.086Z,24.25
2022-09-09T05:49:31.362Z,26.33
2022-09-09T05:52:00.566Z,29.47
2022-09-09T05:54:28.715Z,27.42
2022-09-09T05:56:57.046Z,30.05
2022-09-09T05:59:25.076Z,31.23
2022-09-09T06:01:56.187Z,37.60
2022-09-09T06:04:32.791Z,33.77
2022-09-09T06:07:02.384Z,31.50
2022-09-09T06:09:31.714Z,32.85
2022-09-09T06:11:59.581Z,35.08
2022-09-09T06:14:28.639Z,38.53
2022-09-09T06:16:59.610Z,35.93
2022-09-09T06:19:32.048Z,36.65
2022-09-09T06:22:01.225Z,34.28
2022-09-09T06:24:31.573Z,33.42
2022-09-09T06:27:01.650Z,32.85
2022-09-09T06:29:33.695Z,30.80
2022-09-09T06:32:04.217Z,27.98
2022-09-09T06:34:32.257Z,30.95
2022-09-09T06:37:01.659Z,26.95
2022-09-09T06:39:47.121Z,27.83
2022-09-09T06:42:15.056Z,30.33
2022-09-09T06:45:08.533Z,29.80
2022-09-09T06:47:45.179Z,28.00
2022-09-09T06:50:13.439Z,24.67
2022-09-09T06:52:41.342Z,23.30
2022-09-09T06:55:10.732Z,22.60
2022-09-09T06:57:39.664Z,27.15
2022-09-09T07:00:15.566Z,23.65
2022-09-09T07:02:43.792Z,24.58
2022-09-09T07:05:16.734Z,25.33
2022-09-09T07:07:53.818Z,21.70
2022-09-09T07:10:23.057Z,23.75
2022-09-09T07:12:55.057Z,23.98
2022-09-09T07:15:26.174Z,25.50
2022-09-09T07:17:55.671Z,19.63
2022-09-09T07:20:23.696Z,23.47
2022-09-09T07:22:56.738Z,23.58
2022-09-09T07:25:24.856Z,19.83
2022-09-09T07:27:53.425Z,22.73
2022-09-09T07:30:27.623Z,19.52
2022-09-09T07:32:58.376Z,19.60
2022-09-09T07:35:28.129Z,19.90
2022-09-09T07:37:56.712Z,17.58
2022-09-09T07:40:25.974Z,19.75
2022-09-09T07:42:55.131Z,17.92
2022-09-09T07:45:23.227Z,19.97
2022-09-09T07:47:51.168Z,22.08
2022-09-09T07:50:19.362Z,21.15
2022-09-09T07:52:47.331Z,17.92
2022-09-09T07:55:16.293Z,19.70
2022-09-09T07:57:44.194Z,20.77
2022-09-09T08:00:13.474Z,19.65
2022-09-09T08:02:43.737Z,18.88
2022-09-09T08:05:12.269Z,17.02
2022-09-09T08:07:41.564Z,16.15
2022-09-09T08:10:09.648Z,14.03
2022-09-09T08:12:42.150Z,11.90
2022-09-09T08:15:16.182Z,13.27
2022-09-09T08:17:45.089Z,16.27
2022-09-09T08:20:12.996Z,13.85
2022-09-09T08:22:40.959Z,12.83
2022-09-09T08:25:09.773Z,11.95
2022-09-09T08:27:38.844Z,17.58
2022-09-09T08:30:08.620Z,25.20
2022-09-09T08:32:36.497Z,28.83
2022-09-09T08:35:08.096Z,23.93
2022-09-09T08:37:36.778Z,15.32
2022-09-09T08:40:04.805Z,17.02
2022-09-09T08:42:41.814Z,13.27
2022-09-09T08:45:33.439Z,48.90
2022-09-09T08:48:23.627Z,18.03
2022-09-09T08:50:53.388Z,30.05
2022-09-09T08:53:41.374Z,41.30
2022-09-09T08:56:17.918Z,14.52
2022-09-09T08:58:58.626Z,18.23
2022-09-09T09:02:07.375Z,16.67
2022-09-09T09:04:57.961Z,19.05
2022-09-09T09:07:56.378Z,13.95
2022-09-09T09:10:52.119Z,16.02
2022-09-09T09:13:23.654Z,14.02
2022-09-09T09:16:03.631Z,12.67
2022-09-09T09:18:32.830Z,14.45
2022-09-09T09:21:20.119Z,15.00
2022-09-09T09:24:00.684Z,17.90
2022-09-09T09:26:37.166Z,19.55
2022-09-09T09:29:14.229Z,16.87
2022-09-09T09:31:59.116Z,17.50
2022-09-09T09:34:28.135Z,19.05
2022-09-09T09:37:06.363Z,16.23
2022-09-09T09:42:27.973Z,15.70
2022-09-09T09:45:09.574Z,16.35
2022-09-09T09:47:37.665Z,15.98
2022-09-09T09:50:21.711Z,18.00
2022-09-09T09:52:58.802Z,17.10
2022-09-09T09:55:32.387Z,20.83
2022-09-09T09:58:06.778Z,21.00
2022-09-09T10:00:37.525Z,16.00
2022-09-09T10:03:31.610Z,23.67
2022-09-09T10:06:01.021Z,17.60
2022-09-09T10:08:29.421Z,15.63
2022-09-09T10:11:22.469Z,16.80
2022-09-09T10:14:09.015Z,16.02
2022-09-09T10:17:09.258Z,18.75
2022-09-09T10:19:42.158Z,15.23
2022-09-09T10:22:22.087Z,14.57
2022-09-09T10:25:07.554Z,14.65
2022-09-09T10:27:38.410Z,17.20
2022-09-09T10:30:16.348Z,13.95
2022-09-09T10:32:52.346Z,16.90
2022-09-09T10:35:48.068Z,19.00
2022-09-09T10:38:24.297Z,11.80
2022-09-09T10:41:08.423Z,10.82
2022-09-09T10:44:00.688Z,11.38
2022-09-09T10:46:40.928Z,12.52
2022-09-09T10:49:22.025Z,13.60
2022-09-09T10:52:08.761Z,10.70
2022-09-09T10:55:02.949Z,13.25
2022-09-09T10:57:37.935Z,16.80
2022-09-09T11:00:08.429Z,12.55
2022-09-09T11:02:37.625Z,15.00
2022-09-09T11:05:05.308Z,13.63
2022-09-09T11:07:48.021Z,13.25
2022-09-09T11:10:37.564Z,11.95
2022-09-09T11:13:35.189Z,11.80
2022-09-09T11:16:37.315Z,13.73
2022-09-09T11:19:15.462Z,14.07
2022-09-09T11:21:51.001Z,13.07
2022-09-09T11:24:29.866Z,13.48
2022-09-09T11:27:08.696Z,10.43
2022-09-09T11:29:51.653Z,11.27
2022-09-09T11:32:41.481Z,11.77
2022-09-09T11:35:34.004Z,15.40
2022-09-09T11:38:01.994Z,14.57
2022-09-09T11:40:32.022Z,34.67
2022-09-09T11:43:14.057Z,20.63
2022-09-09T11:45:44.030Z,17.83
2022-09-09T11:48:47.037Z,13.18
2022-09-09T11:51:29.542Z,12.70
2022-09-09T11:54:06.450Z,13.93
2022-09-09T11:56:43.567Z,14.40
2022-09-09T11:59:32.605Z,16.38
2022-09-09T12:02:33.452Z,13.00
2022-09-09T12:05:10.060Z,13.10
2022-09-09T12:07:44.085Z,17.13
2022-09-09T12:10:37.449Z,13.30
2022-09-09T12:13:24.049Z,14.15
2022-09-09T12:15:56.967Z,12.15
2022-09-09T12:18:33.749Z,13.10
2022-09-09T12:21:18.094Z,13.73
2022-09-09T12:23:55.015Z,19.93
2022-09-09T12:26:39.657Z,14.38
2022-09-09T12:29:13.546Z,15.38
2022-09-09T12:31:58.407Z,15.63
2022-09-09T12:34:42.495Z,16.75
2022-09-09T12:37:20.357Z,15.97
2022-09-09T12:39:58.120Z,18.55
2022-09-09T12:42:27.207Z,18.05
2022-09-09T12:45:00.298Z,17.02
2022-09-09T12:48:03.348Z,16.90
2022-09-09T12:50:45.091Z,20.87
2022-09-09T12:53:26.543Z,16.63
2022-09-09T12:56:08.793Z,16.20
2022-09-09T12:58:38.880Z,18.02
2022-09-09T13:01:07.992Z,13.85
2022-09-09T13:03:44.391Z,13.37
2022-09-09T13:06:15.524Z,17.52
2022-09-09T13:08:43.431Z,15.77
2022-09-09T13:11:18.347Z,13.80
2022-09-09T13:13:53.491Z,17.23
2022-09-09T13:16:31.883Z,17.20
2022-09-09T13:19:09.214Z,13.75
2022-09-09T13:21:39.715Z,15.15
2022-09-09T13:24:36.342Z,20.13
2022-09-09T13:27:19.449Z,13.70
2022-09-09T13:29:57.947Z,17.43
2022-09-09T13:32:28.296Z,15.95
2022-09-09T13:35:02.738Z,14.65
2022-09-09T13:37:30.699Z,16.63
2022-09-09T13:39:59.211Z,16.33
2022-09-09T13:42:32.936Z,14.27
2022-09-09T13:45:01.419Z,18.42
2022-09-09T13:47:35.762Z,18.73
2022-09-09T13:50:27.668Z,16.55
2022-09-09T13:52:59.598Z,15.65
2022-09-09T13:55:31.750Z,13.73
2022-09-09T13:58:01.990Z,13.35
2022-09-09T14:00:35.334Z,17.40
2022-09-09T14:03:03.574Z,19.75
2022-09-09T14:05:34.079Z,15.80
2022-09-09T14:08:02.398Z,14.23
2022-09-09T14:10:30.152Z,16.15
2022-09-09T14:12:58.418Z,16.40
2022-09-09T14:15:26.073Z,16.23
2022-09-09T14:17:53.936Z,14.20
2022-09-09T14:20:22.328Z,16.67
2022-09-09T14:22:50.067Z,13.32
2022-09-09T14:25:18.122Z,15.23
2022-09-09T14:27:48.563Z,14.05
2022-09-09T14:30:16.361Z,13.43
2022-09-09T14:32:44.078Z,11.90
2022-09-09T14:35:12.956Z,12.93
2022-09-09T14:37:40.683Z,13.02
2022-09-09T14:40:08.838Z,13.57
2022-09-09T14:42:36.774Z,13.57
2022-09-09T14:45:05.010Z,12.30
2022-09-09T14:47:32.753Z,15.18
2022-09-09T14:50:02.300Z,14.57
2022-09-09T14:52:31.488Z,13.68
2022-09-09T14:54:59.179Z,12.55
2022-09-09T14:57:27.264Z,13.37
2022-09-09T14:59:54.929Z,11.70
2022-09-09T15:02:22.796Z,14.07
2022-09-09T15:04:51.301Z,13.73
2022-09-09T15:07:20.598Z,12.32
2022-09-09T15:09:49.956Z,12.57
2022-09-09T15:12:21.853Z,15.48
2022-09-09T15:14:49.753Z,12.48
2022-09-09T15:17:18.230Z,13.18
2022-09-09T15:19:46.928Z,13.40
2022-09-09T15:22:14.727Z,11.23
2022-09-09T15:24:42.484Z,13.02
2022-09-09T15:27:10.462Z,13.93
2022-09-09T15:29:39.674Z,14.40
2022-09-09T15:32:07.582Z,18.77
2022-09-09T15:34:35.693Z,13.30
2022-09-09T15:37:03.454Z,15.63
2022-09-09T15:39:33.665Z,11.80
2022-09-09T15:42:03.987Z,11.80
2022-09-09T15:44:39.253Z,13.48
2022-09-09T15:47:07.334Z,15.23
2022-09-09T15:49:35.171Z,13.77
2022-09-09T15:52:04.650Z,12.93
2022-09-09T15:54:36.251Z,12.10
2022-09-09T15:57:05.988Z,11.30
2022-09-09T15:59:35.353Z,12.53
2022-09-09T16:02:04.181Z,13.75
2022-09-09T16:04:32.460Z,14.88
2022-09-09T16:07:05.756Z,14.70
2022-09-09T16:09:34.650Z,12.80
2022-09-09T16:12:07.709Z,20.57
2022-09-09T16:14:37.037Z,13.90
2022-09-09T16:17:05.282Z,15.35
2022-09-09T16:19:33.735Z,13.18
2022-09-09T16:22:01.779Z,13.98
2022-09-09T16:24:30.214Z,12.63
2022-09-09T16:26:58.119Z,15.52
2022-09-09T16:29:28.526Z,12.70
2022-09-09T16:32:00.036Z,20.42
2022-09-09T16:34:31.534Z,21.50
2022-09-09T16:36:59.448Z,24.90
2022-09-09T16:39:27.181Z,18.48
2022-09-09T16:41:54.937Z,15.32
2022-09-09T16:44:23.046Z,14.32
2022-09-09T16:46:58.063Z,16.27
2022-09-09T16:49:29.664Z,16.83
2022-09-09T16:52:00.135Z,16.67
2022-09-09T16:54:28.461Z,14.20
2022-09-09T16:56:56.704Z,14.88
2022-09-09T16:59:24.812Z,12.95
2022-09-09T17:01:53.148Z,15.83
2022-09-09T17:04:25.457Z,16.20
2022-09-09T17:06:55.277Z,16.77
2022-09-09T17:09:24.286Z,12.85
2022-09-09T17:11:53.588Z,16.38
2022-09-09T17:14:23.296Z,12.83
2022-09-09T17:16:52.277Z,15.50
2022-09-09T17:19:20.229Z,13.40
2022-09-09T17:22:15.044Z,18.00
2022-09-09T17:24:39.783Z,13.77
2022-09-09T17:27:08.296Z,15.40
2022-09-09T17:29:37.229Z,12.93
2022-09-09T17:32:06.712Z,15.63
2022-09-09T17:34:35.862Z,10.88
2022-09-09T17:37:03.571Z,15.07
2022-09-09T17:39:33.028Z,17.10
2022-09-09T17:42:01.735Z,22.60
2022-09-09T17:44:30.138Z,19.40
2022-09-09T17:46:58.303Z,18.80
2022-09-09T17:49:26.383Z,22.13
2022-09-09T17:51:55.166Z,24.57
2022-09-09T17:54:23.203Z,22.10
2022-09-09T17:56:51.069Z,18.85
2022-09-09T17:59:19.731Z,24.42
2022-09-09T18:01:53.334Z,13.73
2022-09-09T18:04:21.240Z,16.87
2022-09-09T18:06:56.531Z,13.98
2022-09-09T18:09:28.588Z,18.90
2022-09-09T18:11:59.397Z,15.95
2022-09-09T18:14:32.034Z,16.83
2022-09-09T18:17:02.981Z,16.40
2022-09-09T18:19:33.461Z,17.02
2022-09-09T18:22:05.640Z,16.48
2022-09-09T18:24:34.288Z,16.80
2022-09-09T18:27:02.220Z,15.63
2022-09-09T18:29:31.551Z,19.77
2022-09-09T18:31:59.527Z,16.40
2022-09-09T18:34:29.034Z,22.55
2022-09-09T18:36:57.927Z,18.55
2022-09-09T18:39:29.540Z,21.85
2022-09-09T18:42:01.783Z,24.43
2022-09-09T18:44:33.501Z,22.63
2022-09-09T18:47:04.443Z,20.05
2022-09-09T18:49:33.844Z,21.23
2022-09-09T18:52:03.138Z,18.40
2022-09-09T18:54:34.847Z,20.40
2022-09-09T18:57:03.097Z,24.83
2022-09-09T18:59:31.740Z,22.67
2022-09-09T19:01:59.702Z,22.27
2022-09-09T19:04:28.193Z,21.73
2022-09-09T19:06:59.620Z,20.07
2022-09-09T19:09:31.925Z,20.15
2022-09-09T19:12:04.869Z,19.60
2022-09-09T19:14:35.093Z,23.20
2022-09-09T19:17:04.986Z,19.67
2022-09-09T19:19:34.438Z,19.43
2022-09-09T19:22:07.403Z,18.65
2022-09-09T19:24:35.460Z,19.90
2022-09-09T19:27:07.034Z,18.60
2022-09-09T19:29:39.751Z,20.13
2022-09-09T19:34:57.735Z,21.10
2022-09-09T19:37:26.193Z,18.63
2022-09-09T19:39:54.312Z,19.90
2022-09-09T19:42:22.674Z,21.80
2022-09-09T19:44:51.258Z,21.27
2022-09-09T19:47:20.693Z,21.95
2022-09-09T19:49:50.736Z,19.98
2022-09-09T19:52:19.200Z,17.52
2022-09-09T19:54:47.325Z,23.98
2022-09-09T19:57:15.239Z,18.50
2022-09-09T19:59:43.537Z,23.92
2022-09-09T20:02:16.013Z,16.83
2022-09-09T20:04:44.938Z,20.02
2022-09-09T20:07:13.301Z,20.38
2022-09-09T20:09:41.041Z,17.60
2022-09-09T20:12:10.296Z,23.75
2022-09-09T20:14:39.881Z,19.02
2022-09-09T20:17:10.477Z,20.52
2022-09-09T20:19:40.126Z,17.17
2022-09-09T20:22:08.645Z,17.23
2022-09-09T20:24:37.359Z,18.80
2022-09-09T20:27:07.294Z,20.30
2022-09-09T20:29:36.175Z,20.02
2022-09-09T20:32:08.542Z,17.67
2022-09-09T20:34:37.743Z,18.93
2022-09-09T20:37:06.432Z,16.50
2022-09-09T20:39:36.337Z,16.02
2022-09-09T20:42:05.002Z,18.20
2022-09-09T20:44:32.677Z,17.77
2022-09-09T20:47:06.442Z,22.13
2022-09-09T20:49:35.548Z,22.95
2022-09-09T20:52:04.110Z,21.42
2022-09-09T20:54:34.415Z,20.75
2022-09-09T20:57:03.741Z,27.40
2022-09-09T20:59:32.186Z,33.10
2022-09-09T21:02:01.383Z,29.95
2022-09-09T21:04:30.315Z,36.13
2022-09-09T21:06:58.105Z,33.78
2022-09-09T21:09:26.231Z,31.65
2022-09-09T21:11:54.711Z,30.10
2022-09-09T21:14:23.171Z,32.88
2022-09-09T21:16:51.094Z,27.67
2022-09-09T21:19:19.358Z,25.70
2022-09-09T21:21:48.259Z,33.58
2022-09-09T21:24:16.732Z,26.80
2022-09-09T21:26:44.853Z,24.73
2022-09-09T21:29:13.393Z,21.35
2022-09-09T21:31:43.776Z,21.13
2022-09-09T21:34:13.590Z,27.33
2022-09-09T21:36:41.454Z,28.27
2022-09-09T21:39:10.481Z,26.33
2022-09-09T21:41:39.504Z,22.15
2022-09-09T21:44:11.363Z,19.00
2022-09-09T21:46:39.204Z,22.30
2022-09-09T21:49:07.378Z,21.80
2022-09-09T21:51:36.301Z,24.45
2022-09-09T21:54:04.134Z,25.23
2022-09-09T21:56:32.207Z,23.85
2022-09-09T21:59:04.217Z,22.52
2022-09-09T22:01:33.749Z,23.00
2022-09-09T22:04:02.487Z,25.13
2022-09-09T22:06:30.367Z,23.25
2022-09-09T22:08:59.347Z,24.40
2022-09-09T22:11:28.547Z,25.90
2022-09-09T22:13:56.506Z,27.20
2022-09-09T22:16:24.305Z,24.60
2022-09-09T22:18:55.002Z,28.30
2022-09-09T22:21:23.441Z,23.27
2022-09-09T22:23:56.097Z,33.85
2022-09-09T22:26:26.461Z,19.07
2022-09-09T22:28:54.198Z,24.10
2022-09-09T22:31:23.119Z,31.90
2022-09-09T22:33:52.365Z,32.72
2022-09-09T22:36:21.122Z,22.38
2022-09-09T22:38:50.318Z,34.67
2022-09-09T22:41:19.226Z,53.45
2022-09-09T22:43:47.973Z,38.80
2022-09-09T22:46:15.638Z,32.83
2022-09-09T22:48:44.226Z,27.70
2022-09-09T22:51:14.488Z,21.10
2022-09-09T22:53:44.949Z,23.30
2022-09-09T22:56:17.471Z,25.88
2022-09-09T22:58:46.749Z,22.83
2022-09-09T23:01:18.134Z,23.67
2022-09-09T23:03:46.810Z,26.77
2022-09-09T23:06:24.786Z,25.95
2022-09-09T23:08:58.678Z,27.70
2022-09-09T23:11:32.002Z,18.55
2022-09-09T23:14:01.882Z,20.42
2022-09-09T23:16:38.560Z,27.53
2022-09-09T23:19:12.525Z,28.98
2022-09-09T23:21:40.798Z,39.17
2022-09-09T23:24:14.915Z,29.98
2022-09-09T23:26:45.129Z,44.13
2022-09-09T23:29:14.998Z,46.07
2022-09-09T23:31:45.433Z,45.33
2022-09-09T23:34:14.384Z,54.65
2022-09-09T23:36:45.855Z,98.05
2022-09-09T23:39:13.802Z,139.77
2022-09-09T23:41:41.731Z,42.73
2022-09-09T23:44:12.378Z,28.38
2022-09-09T23:46:40.294Z,45.45
2022-09-09T23:49:09.981Z,74.50
2022-09-09T23:51:38.571Z,51.50
2022-09-09T23:54:06.882Z,56.07
2022-09-09T23:56:38.118Z,71.63
2022-09-09T23:59:07.545Z,51.95
